Time;durP1;ratioP1;P1;durP2;ratioP2;P2;SDS_P1;SDS_P2;PMS_P1;PMS_P2;Temp;Humidity;BMP_temperature;BMP_pressure;BME280_temperature;BME280_humidity;BME280_pressure;Samples;Min_cycle;Max_cycle;Signal;HPM_P1;HPM_P2
2021/01/22 00:01:14;;;;;;;15.00;13.43;;;15.60;99.90;;;;;;5185991;27;20027;-89
2021/01/22 00:03:42;;;;;;;8.13;7.32;;;15.70;99.90;;;;;;5164936;27;20085;-89
2021/01/22 00:06:11;;;;;;;10.07;7.78;;;15.70;99.90;;;;;;5182326;27;20054;-88
2021/01/22 00:08:39;;;;;;;10.90;9.00;;;15.80;99.90;;;;;;5184781;27;20073;-89
2021/01/22 00:11:07;;;;;;;11.52;8.10;;;15.90;99.90;;;;;;5167883;27;20034;-89
2021/01/22 00:13:35;;;;;;;11.43;8.32;;;15.90;99.90;;;;;;5150407;27;20031;-88
2021/01/22 00:16:03;;;;;;;10.43;9.20;;;16.00;99.90;;;;;;5183330;27;20019;-89
2021/01/22 00:18:32;;;;;;;13.73;8.38;;;16.00;99.90;;;;;;5188140;27;20038;-89
2021/01/22 00:21:00;;;;;;;9.32;8.38;;;16.10;99.90;;;;;;5182093;27;20062;-89
2021/01/22 00:23:29;;;;;;;9.57;7.87;;;16.10;99.90;;;;;;5186549;27;20026;-89
2021/01/22 00:25:57;;;;;;;9.25;8.32;;;16.10;99.90;;;;;;5183880;27;20030;-89
2021/01/22 00:28:25;;;;;;;9.23;7.85;;;16.20;99.90;;;;;;5165632;27;20046;-89
2021/01/22 00:30:53;;;;;;;12.85;8.57;;;16.20;99.90;;;;;;5186415;27;20322;-89
2021/01/22 00:33:21;;;;;;;10.65;8.35;;;16.20;99.90;;;;;;5185760;27;20497;-89
2021/01/22 00:35:49;;;;;;;9.35;8.50;;;16.30;99.90;;;;;;5168270;27;20643;-89
2021/01/22 00:38:17;;;;;;;10.95;9.13;;;16.30;99.90;;;;;;5166865;27;20026;-88
2021/01/22 00:40:46;;;;;;;11.55;9.00;;;16.30;99.90;;;;;;5166681;27;20872;-88
2021/01/22 00:43:14;;;;;;;12.05;8.48;;;16.30;99.90;;;;;;5167546;27;20042;-89
2021/01/22 00:45:42;;;;;;;8.32;7.43;;;16.30;99.90;;;;;;5183975;27;20059;-88
2021/01/22 00:48:10;;;;;;;11.12;7.60;;;16.20;99.90;;;;;;5167845;27;20395;-88
2021/01/22 00:50:38;;;;;;;10.75;7.62;;;16.20;99.90;;;;;;5167078;27;20038;-89
2021/01/22 00:53:07;;;;;;;10.60;6.50;;;16.20;99.90;;;;;;5163784;27;20251;-89
2021/01/22 00:55:35;;;;;;;12.27;6.78;;;16.20;99.90;;;;;;5163943;27;20058;-88
2021/01/22 00:58:04;;;;;;;3.90;3.42;;;16.30;99.90;;;;;;5167914;27;20031;-89
2021/01/22 01:00:33;;;;;;;9.20;7.60;;;16.30;99.90;;;;;;5167758;27;20027;-89
2021/01/22 01:03:03;;;;;;;9.63;8.70;;;16.30;99.90;;;;;;5180643;27;20042;-88
2021/01/22 01:05:32;;;;;;;14.68;8.80;;;16.40;99.90;;;;;;5165531;27;20035;-89
2021/01/22 01:08:00;;;;;;;9.25;8.25;;;16.40;99.90;;;;;;5170671;27;20455;-89
2021/01/22 01:10:31;;;;;;;9.82;8.98;;;16.40;99.90;;;;;;5169311;27;20374;-88
2021/01/22 01:13:00;;;;;;;9.70;7.28;;;16.40;99.90;;;;;;5183689;27;20062;-89
2021/01/22 01:15:31;;;;;;;9.05;3.70;;;16.40;99.90;;;;;;5185334;27;20484;-89
2021/01/22 01:17:59;;;;;;;8.32;3.87;;;16.40;99.90;;;;;;5190042;27;20050;-89
2021/01/22 01:20:28;;;;;;;11.27;9.30;;;16.30;99.90;;;;;;5168709;27;20085;-88
2021/01/22 01:22:56;;;;;;;15.07;14.10;;;16.30;99.90;;;;;;5165226;27;20043;-88
2021/01/22 01:25:24;;;;;;;16.20;14.90;;;16.30;99.90;;;;;;5165295;27;20036;-89
2021/01/22 01:27:52;;;;;;;15.85;14.55;;;16.30;99.90;;;;;;5168939;27;20066;-89
2021/01/22 01:30:21;;;;;;;15.32;14.13;;;16.30;99.90;;;;;;5188445;27;20059;-89
2021/01/22 01:32:48;;;;;;;16.95;15.30;;;16.30;99.90;;;;;;5186137;27;20073;-89
2021/01/22 01:35:16;;;;;;;15.85;14.65;;;16.30;99.90;;;;;;5185388;27;20390;-88
2021/01/22 01:37:45;;;;;;;14.63;13.45;;;16.40;99.90;;;;;;5190246;27;20031;-88
2021/01/22 01:40:13;;;;;;;11.40;10.25;;;16.40;99.90;;;;;;5167874;27;20031;-88
2021/01/22 01:42:41;;;;;;;4.90;2.62;;;16.40;99.90;;;;;;5189376;27;20035;-89
2021/01/22 01:45:09;;;;;;;16.02;14.60;;;16.40;99.90;;;;;;5152777;27;20054;-89
2021/01/22 01:47:37;;;;;;;14.87;13.88;;;16.40;99.90;;;;;;5186493;27;20066;-89
2021/01/22 01:50:06;;;;;;;16.08;14.40;;;16.50;99.90;;;;;;5165383;27;20049;-89
2021/01/22 01:52:36;;;;;;;17.95;14.90;;;16.50;99.90;;;;;;5183735;27;20030;-88
2021/01/22 01:55:06;;;;;;;14.95;13.73;;;16.50;99.90;;;;;;5185663;27;20027;-88
2021/01/22 01:57:34;;;;;;;15.30;13.77;;;16.50;99.90;;;;;;5189094;27;20019;-89
2021/01/22 02:00:06;;;;;;;16.33;15.00;;;16.50;99.90;;;;;;5188973;27;20027;-89
2021/01/22 02:02:35;;;;;;;17.08;15.68;;;16.50;99.90;;;;;;5166204;27;20066;-89
2021/01/22 02:05:04;;;;;;;17.92;16.30;;;16.60;99.90;;;;;;5169260;27;20032;-90
2021/01/22 02:07:32;;;;;;;17.35;16.05;;;16.60;99.90;;;;;;5189714;27;20041;-89
2021/01/22 02:10:00;;;;;;;16.20;15.05;;;16.60;99.90;;;;;;5188872;27;20202;-90
2021/01/22 02:12:31;;;;;;;7.68;1.40;;;16.60;99.90;;;;;;5182427;27;20045;-89
2021/01/22 02:15:00;;;;;;;9.93;1.90;;;16.60;99.90;;;;;;5189413;27;20095;-91
2021/01/22 02:17:30;;;;;;;80.70;3.60;;;16.60;99.90;;;;;;5153424;27;20027;-90
2021/01/22 02:20:17;;;;;;;69.78;3.70;;;16.60;99.90;;;;;;5186548;27;20388;-90
2021/01/22 02:22:46;;;;;;;68.50;3.47;;;16.60;99.90;;;;;;5167046;27;20034;-89
2021/01/22 02:25:15;;;;;;;110.97;4.40;;;16.50;99.90;;;;;;5187002;27;20031;-89
2021/01/22 02:27:43;;;;;;;63.08;3.03;;;16.50;99.90;;;;;;5189863;27;20399;-90
2021/01/22 02:30:11;;;;;;;34.45;2.55;;;16.40;99.90;;;;;;5188873;27;20031;-89
2021/01/22 02:32:44;;;;;;;37.13;2.97;;;16.40;99.90;;;;;;5167973;27;20023;-89
2021/01/22 02:35:16;;;;;;;14.93;2.67;;;16.40;99.90;;;;;;5188187;27;20030;-89
2021/01/22 02:37:48;;;;;;;15.00;2.92;;;16.30;99.90;;;;;;5189619;27;20024;-89
2021/01/22 02:40:18;;;;;;;28.10;2.30;;;16.30;99.90;;;;;;5187111;27;20434;-90
2021/01/22 02:42:49;;;;;;;14.15;2.90;;;16.30;99.90;;;;;;5169661;27;20042;-89
2021/01/22 02:45:20;;;;;;;19.42;2.50;;;16.40;99.90;;;;;;5170131;27;20027;-89
2021/01/22 02:47:50;;;;;;;7.93;2.20;;;16.40;99.90;;;;;;5190436;27;20037;-89
2021/01/22 02:50:34;;;;;;;12.68;2.70;;;16.40;99.90;;;;;;5188555;27;20023;-89
2021/01/22 02:53:06;;;;;;;23.48;2.60;;;16.40;99.90;;;;;;5170605;27;20030;-89
2021/01/22 02:55:36;;;;;;;42.50;3.05;;;16.40;99.90;;;;;;5170474;27;20038;-89
2021/01/22 02:58:18;;;;;;;122.07;4.00;;;16.40;99.90;;;;;;5190131;27;20027;-89
2021/01/22 03:00:52;;;;;;;93.97;3.00;;;16.40;99.90;;;;;;5189349;27;20054;-89
2021/01/22 03:03:40;;;;;;;174.62;6.47;;;16.40;99.90;;;;;;5187354;27;20451;-90
2021/01/22 03:06:16;;;;;;;170.93;5.97;;;16.50;99.90;;;;;;5187856;27;20023;-89
2021/01/22 03:08:46;;;;;;;165.18;13.13;;;16.40;99.90;;;;;;5190935;27;20046;-89
2021/01/22 03:14:15;;;;;;;36.60;2.35;;;16.50;99.90;;;;;;5157204;27;20460;-89
2021/01/22 03:20:00;;;;;;;;;;;16.50;99.90;;;;;;5124080;28;20020;-89
2021/01/22 03:22:33;;;;;;;9.50;2.37;;;16.50;99.90;;;;;;5147325;27;19946;31
2021/01/22 03:25:01;;;;;;;9.65;2.83;;;16.40;99.90;;;;;;5133300;27;20111;-89
2021/01/22 03:27:30;;;;;;;7.80;2.30;;;16.40;99.90;;;;;;5132533;27;20111;-90
2021/01/22 03:29:58;;;;;;;4.62;1.80;;;16.40;99.90;;;;;;5132002;27;20042;-87
2021/01/22 03:32:27;;;;;;;6.10;2.22;;;16.40;99.90;;;;;;5121340;27;20032;-88
2021/01/22 03:35:04;;;;;;;6.78;2.00;;;16.40;99.90;;;;;;5114559;28;20021;-91
2021/01/22 03:37:33;;;;;;;5.80;1.85;;;16.40;99.90;;;;;;5133554;27;20086;-90
2021/01/22 03:40:01;;;;;;;9.18;2.30;;;16.40;99.90;;;;;;5108365;27;20047;-89
2021/01/22 03:42:31;;;;;;;11.52;3.00;;;16.40;99.90;;;;;;5132929;27;20007;-92
2021/01/22 03:44:59;;;;;;;8.95;2.58;;;16.50;99.90;;;;;;5128492;28;20029;-92
2021/01/22 03:47:33;;;;;;;6.68;2.10;;;16.50;99.90;;;;;;5114400;27;20070;-95
2021/01/22 03:50:01;;;;;;;10.73;2.83;;;16.50;99.90;;;;;;5145764;27;20027;-89
2021/01/22 03:52:30;;;;;;;12.07;2.83;;;16.50;99.90;;;;;;5129046;28;19996;-92
2021/01/22 03:54:58;;;;;;;25.35;22.83;;;16.50;99.90;;;;;;5150348;27;20445;-89
2021/01/22 03:57:26;;;;;;;7.37;3.35;;;16.50;99.90;;;;;;5150830;27;20552;-92
2021/01/22 03:59:54;;;;;;;11.25;2.62;;;16.50;99.90;;;;;;5126523;27;20083;-89
2021/01/22 04:02:25;;;;;;;15.90;9.25;;;16.50;99.90;;;;;;5145271;27;20741;-90
2021/01/22 04:04:55;;;;;;;22.17;20.10;;;16.60;99.90;;;;;;5145877;27;20038;31
2021/01/22 04:07:45;;;;;;;16.23;14.82;;;16.60;99.90;;;;;;5141460;27;21019;31
2021/01/22 04:10:13;;;;;;;13.35;11.88;;;16.60;99.90;;;;;;5163401;27;20031;-91
2021/01/22 04:12:41;;;;;;;14.38;11.82;;;16.50;99.90;;;;;;5152413;27;20023;-90
2021/01/22 04:15:10;;;;;;;9.98;8.95;;;16.60;99.90;;;;;;5153587;27;20045;-89
2021/01/22 04:21:06;;;;;;;9.02;2.25;;;16.60;99.90;;;;;;5151814;27;20059;-92
2021/01/22 04:23:41;;;;;;;10.52;2.60;;;16.60;99.90;;;;;;5142395;27;20074;31
2021/01/22 04:26:41;;;;;;;5.12;1.90;;;16.60;99.90;;;;;;5116158;27;20078;-89
2021/01/22 04:29:12;;;;;;;5.28;2.00;;;16.60;99.90;;;;;;5109985;28;20040;-91
2021/01/22 04:31:41;;;;;;;14.65;3.22;;;16.60;99.90;;;;;;5111030;27;20024;-91
2021/01/22 04:34:10;;;;;;;6.70;2.53;;;16.60;99.90;;;;;;5110531;28;20071;-90
2021/01/22 04:36:45;;;;;;;12.57;3.03;;;16.60;99.90;;;;;;5091649;27;20023;-88
2021/01/22 04:39:13;;;;;;;13.13;3.62;;;16.60;99.90;;;;;;5106041;28;20112;-90
2021/01/22 04:41:41;;;;;;;8.57;2.45;;;16.60;99.90;;;;;;5124508;28;20060;-89
2021/01/22 04:44:09;;;;;;;54.95;3.90;;;16.50;99.90;;;;;;5126773;28;20055;-89
2021/01/22 04:46:38;;;;;;;15.88;2.60;;;16.50;99.90;;;;;;5124229;28;20458;-88
2021/01/22 04:49:07;;;;;;;19.00;3.92;;;16.50;99.90;;;;;;5125203;28;20071;-89
2021/01/22 04:51:36;;;;;;;3.70;1.87;;;16.50;99.90;;;;;;5123823;28;20449;-88
2021/01/22 04:54:10;;;;;;;8.45;2.33;;;16.50;99.90;;;;;;5124900;28;20058;-89
2021/01/22 04:56:49;;;;;;;4.72;2.28;;;16.50;99.90;;;;;;5122964;27;20034;-88
2021/01/22 04:59:46;;;;;;;4.75;1.85;;;16.50;99.90;;;;;;5107392;28;20416;-88
2021/01/22 05:02:15;;;;;;;6.80;1.95;;;16.50;99.90;;;;;;5106982;28;20032;-88
2021/01/22 05:04:43;;;;;;;4.87;1.67;;;16.50;99.90;;;;;;5124223;28;20051;-89
2021/01/22 05:07:12;;;;;;;4.07;1.98;;;16.50;99.90;;;;;;5120858;28;20020;-88
2021/01/22 05:09:40;;;;;;;6.20;2.12;;;16.50;99.90;;;;;;5127340;27;20051;-88
2021/01/22 05:12:09;;;;;;;3.67;1.90;;;16.50;99.90;;;;;;5108621;28;20038;-88
2021/01/22 05:14:37;;;;;;;13.10;3.12;;;16.50;99.90;;;;;;5121349;28;20450;-88
2021/01/22 05:17:10;;;;;;;6.70;2.28;;;16.50;99.90;;;;;;5107971;28;20060;-88
2021/01/22 05:19:40;;;;;;;5.87;2.33;;;16.50;99.90;;;;;;5126719;27;20055;-89
2021/01/22 05:22:15;;;;;;;5.93;1.90;;;16.50;99.90;;;;;;5125326;28;20032;-88
2021/01/22 05:24:44;;;;;;;8.30;2.03;;;16.50;99.90;;;;;;5126825;27;20040;-88
2021/01/22 05:27:14;;;;;;;9.27;2.05;;;16.50;99.90;;;;;;5126369;28;20064;-88
2021/01/22 05:29:44;;;;;;;9.73;2.25;;;16.50;99.90;;;;;;5124949;28;20087;-89
2021/01/22 05:32:31;;;;;;;7.62;2.37;;;16.50;99.90;;;;;;5106111;28;20075;-88
2021/01/22 05:35:00;;;;;;;9.68;2.50;;;16.50;99.90;;;;;;5124775;28;20012;-88
2021/01/22 05:37:28;;;;;;;42.08;3.20;;;16.50;99.90;;;;;;5109148;28;20098;-89
2021/01/22 05:40:10;;;;;;;25.80;2.12;;;16.50;99.90;;;;;;5126220;28;20422;-89
2021/01/22 05:42:57;;;;;;;51.75;3.00;;;16.50;99.90;;;;;;5125189;28;20028;-88
2021/01/22 05:45:45;;;;;;;40.47;12.20;;;16.50;99.90;;;;;;5126979;28;20035;-89
2021/01/22 05:48:17;;;;;;;82.05;16.55;;;16.40;99.90;;;;;;5125644;28;20031;-89
2021/01/22 05:50:57;;;;;;;91.30;2.85;;;16.40;99.90;;;;;;5123593;28;20411;-88
2021/01/22 05:53:27;;;;;;;49.75;3.50;;;16.40;99.90;;;;;;5121047;28;20395;-89
2021/01/22 05:56:11;;;;;;;13.57;11.80;;;16.40;99.90;;;;;;5126277;27;20024;-89
2021/01/22 05:58:41;;;;;;;;;;;16.30;99.90;;;;;;5108307;28;20028;-88
2021/01/22 06:01:17;;;;;;;6.82;2.60;;;16.30;99.90;;;;;;5124390;27;19971;-91
2021/01/22 06:03:47;;;;;;;4.47;1.95;;;16.30;99.90;;;;;;5123331;28;20019;-88
2021/01/22 06:06:16;;;;;;;4.78;1.98;;;16.30;99.90;;;;;;5127842;27;20032;-88
2021/01/22 06:08:58;;;;;;;17.10;15.68;;;16.30;99.90;;;;;;5126280;28;20020;-88
2021/01/22 06:11:28;;;;;;;16.67;15.43;;;16.20;99.90;;;;;;5122723;27;20711;-88
2021/01/22 06:14:04;;;;;;;17.12;15.77;;;16.20;99.90;;;;;;5122516;28;20032;-88
2021/01/22 06:16:35;;;;;;;17.92;16.40;;;16.20;99.90;;;;;;5126068;28;20047;-88
2021/01/22 06:19:07;;;;;;;16.23;14.63;;;16.20;99.90;;;;;;5127195;27;20028;-88
2021/01/22 06:21:39;;;;;;;16.12;14.82;;;16.20;99.90;;;;;;5126576;28;20016;-88
2021/01/22 06:24:08;;;;;;;3.53;3.05;;;16.10;99.90;;;;;;5124704;28;20060;-89
2021/01/22 06:26:39;;;;;;;8.63;7.30;;;16.00;99.90;;;;;;5125583;28;20079;-89
2021/01/22 06:29:11;;;;;;;16.33;15.13;;;16.00;99.90;;;;;;5125873;28;20099;-88
2021/01/22 06:31:41;;;;;;;16.87;15.57;;;16.00;99.90;;;;;;5127441;28;20030;-89
2021/01/22 06:34:10;;;;;;;16.20;15.00;;;15.90;99.90;;;;;;5122413;28;20032;-89
2021/01/22 06:36:42;;;;;;;16.92;15.48;;;16.00;99.90;;;;;;5126939;27;20035;-90
2021/01/22 06:39:12;;;;;;;16.98;15.40;;;16.00;99.90;;;;;;5129114;27;20039;-89
2021/01/22 06:41:42;;;;;;;16.92;15.63;;;16.00;99.90;;;;;;5132061;27;20020;-89
2021/01/22 06:44:11;;;;;;;16.92;15.27;;;16.00;99.90;;;;;;5149475;27;20063;-90
2021/01/22 06:46:42;;;;;;;17.08;15.60;;;16.00;99.90;;;;;;5149079;27;20480;-89
2021/01/22 06:49:11;;;;;;;16.52;14.98;;;16.00;99.90;;;;;;5130628;27;20353;-89
2021/01/22 06:51:40;;;;;;;16.73;15.35;;;16.00;99.90;;;;;;5127633;27;20398;-89
2021/01/22 06:54:20;;;;;;;16.75;15.35;;;16.00;99.90;;;;;;5143373;27;20067;-88
2021/01/22 06:56:51;;;;;;;16.77;15.45;;;16.00;99.90;;;;;;5127700;27;20032;-88
2021/01/22 06:59:24;;;;;;;17.75;16.17;;;16.00;99.90;;;;;;5113841;27;20336;-90
2021/01/22 07:01:52;;;;;;;19.95;17.73;;;16.00;99.90;;;;;;5128934;27;20042;-88
2021/01/22 07:04:37;;;;;;;22.33;20.17;;;15.90;99.90;;;;;;5129937;27;20038;-88
2021/01/22 07:07:07;;;;;;;33.80;18.08;;;15.90;99.90;;;;;;5129650;27;20024;-89
2021/01/22 07:09:42;;;;;;;79.25;18.17;;;15.90;99.90;;;;;;5128927;27;20059;-89
2021/01/22 07:12:11;;;;;;;46.03;17.65;;;15.90;99.90;;;;;;5127612;27;20763;-89
2021/01/22 07:14:47;;;;;;;45.67;17.87;;;15.90;99.90;;;;;;5146965;27;20043;-89
2021/01/22 07:17:17;;;;;;;17.08;15.20;;;15.90;99.90;;;;;;5129516;27;20062;-89
2021/01/22 07:19:57;;;;;;;16.65;15.10;;;16.00;99.90;;;;;;5148519;27;20372;-89
2021/01/22 07:22:31;;;;;;;16.90;15.38;;;16.00;99.90;;;;;;5131805;27;20055;-87
2021/01/22 07:25:02;;;;;;;21.35;19.98;;;16.10;99.90;;;;;;5130175;27;20063;-88
2021/01/22 07:27:44;;;;;;;3.22;2.00;;;16.10;99.90;;;;;;5148256;27;20024;-88
2021/01/22 07:30:17;;;;;;;1.52;1.42;;;16.10;99.90;;;;;;5130878;27;20036;-88
2021/01/22 07:32:51;;;;;;;3.25;1.90;;;16.10;99.90;;;;;;5150283;27;20023;-88
2021/01/22 07:35:22;;;;;;;5.20;2.00;;;16.20;99.90;;;;;;5130593;27;20043;-89
2021/01/22 07:37:51;;;;;;;15.57;14.25;;;16.20;99.90;;;;;;5130358;27;20067;-88
2021/01/22 07:40:19;;;;;;;2.37;1.75;;;16.20;99.90;;;;;;5129109;27;20050;-88
2021/01/22 07:42:48;;;;;;;3.25;1.83;;;16.20;99.90;;;;;;5147951;27;20116;-87
2021/01/22 07:45:18;;;;;;;15.15;13.88;;;16.20;99.90;;;;;;5141542;27;20028;-88
2021/01/22 07:47:48;;;;;;;14.27;13.27;;;16.30;99.90;;;;;;5146546;27;20104;-88
2021/01/22 07:50:21;;;;;;;14.50;13.30;;;16.30;99.90;;;;;;5128920;27;20073;-87
2021/01/22 07:52:50;;;;;;;14.25;13.07;;;16.30;99.90;;;;;;5146888;27;20052;-88
2021/01/22 07:55:19;;;;;;;15.13;13.55;;;16.30;99.90;;;;;;5125234;27;20039;-89
2021/01/22 07:58:07;;;;;;;15.25;13.60;;;16.30;99.90;;;;;;5145523;27;20122;-89
2021/01/22 08:00:40;;;;;;;14.73;13.20;;;16.30;99.90;;;;;;5146133;27;20051;-89
2021/01/22 08:03:11;;;;;;;22.20;13.07;;;16.40;99.90;;;;;;5147768;27;20055;-88
2021/01/22 08:05:41;;;;;;;16.92;14.38;;;16.40;99.90;;;;;;5146070;27;20024;-89
2021/01/22 08:08:20;;;;;;;25.20;15.25;;;16.40;99.90;;;;;;5146770;27;20038;-88
2021/01/22 08:10:48;;;;;;;48.05;15.20;;;16.40;99.90;;;;;;5148416;27;20059;-87
2021/01/22 08:13:17;;;;;;;123.65;17.85;;;16.40;99.90;;;;;;5128276;27;20070;-89
2021/01/22 08:15:45;;;;;;;112.57;15.45;;;16.50;99.90;;;;;;5125875;27;20415;-88
2021/01/22 08:18:14;;;;;;;176.05;17.98;;;16.50;99.90;;;;;;5131111;27;20059;-88
2021/01/22 08:20:51;;;;;;;22.58;14.20;;;16.60;99.90;;;;;;5128428;27;20032;-89
2021/01/22 08:23:22;;;;;;;23.23;14.68;;;16.60;99.90;;;;;;5147920;27;20379;-88
2021/01/22 08:25:59;;;;;;;53.87;15.48;;;16.60;99.90;;;;;;5144121;27;20095;-88
2021/01/22 08:28:31;;;;;;;73.62;23.87;;;16.70;99.90;;;;;;5147920;27;20038;-89
2021/01/22 08:30:59;;;;;;;40.83;15.88;;;16.70;99.90;;;;;;5127409;27;20082;-87
2021/01/22 08:33:28;;;;;;;28.75;18.58;;;16.70;99.90;;;;;;5145430;27;20127;-89
2021/01/22 08:35:56;;;;;;;35.53;18.87;;;16.70;99.90;;;;;;5125626;27;20031;-89
2021/01/22 08:38:25;;;;;;;21.83;20.10;;;16.70;99.90;;;;;;5125509;28;20055;-89
2021/01/22 08:40:53;;;;;;;21.67;17.87;;;16.70;99.90;;;;;;5125171;28;20024;-89
2021/01/22 08:43:23;;;;;;;13.57;12.68;;;16.70;99.90;;;;;;5125982;28;20733;-88
2021/01/22 08:46:07;;;;;;;13.62;12.77;;;16.70;99.90;;;;;;5121235;28;20043;-89
2021/01/22 08:48:37;;;;;;;23.40;20.60;;;16.70;99.90;;;;;;5123422;27;20526;-83
2021/01/22 08:51:07;;;;;;;49.00;13.48;;;16.70;99.90;;;;;;5127286;27;20039;-96
2021/01/22 08:53:52;;;;;;;14.52;13.18;;;16.80;99.90;;;;;;5134910;28;20031;-96
2021/01/22 08:56:40;;;;;;;14.57;13.40;;;16.80;99.90;;;;;;5121628;28;20031;-96
2021/01/22 08:59:12;;;;;;;16.58;15.00;;;16.70;99.90;;;;;;5118982;28;20035;-96
2021/01/22 09:01:59;;;;;;;24.60;16.15;;;16.70;99.90;;;;;;5136143;28;20019;-96
2021/01/22 09:04:37;;;;;;;17.92;16.33;;;16.80;99.90;;;;;;5119151;28;20025;-97
2021/01/22 09:07:18;;;;;;;18.20;16.67;;;16.90;99.90;;;;;;5124834;28;20031;-96
2021/01/22 09:09:53;;;;;;;19.55;17.60;;;17.00;99.90;;;;;;5119557;28;20038;-96
2021/01/22 09:12:32;;;;;;;103.40;18.98;;;17.10;99.90;;;;;;5106090;28;20081;-96
2021/01/22 09:15:09;;;;;;;;;;;17.30;99.90;;;;;;5120872;28;20036;-96
2021/01/22 09:17:54;;;;;;;18.33;14.87;;;17.30;99.90;;;;;;5138854;28;19952;-96
2021/01/22 09:20:28;;;;;;;59.45;17.25;;;17.20;99.90;;;;;;5108022;28;20028;-96
2021/01/22 09:23:06;;;;;;;28.10;16.75;;;17.10;99.90;;;;;;5122772;28;20028;-96
2021/01/22 09:25:47;;;;;;;44.90;16.67;;;17.10;99.90;;;;;;5123957;28;20083;-96
2021/01/22 09:28:22;;;;;;;32.03;12.70;;;17.10;99.90;;;;;;5123323;28;20030;-96
2021/01/22 09:30:51;;;;;;;20.40;11.32;;;17.00;99.90;;;;;;5120278;28;20407;-96
2021/01/22 09:33:29;;;;;;;32.92;11.68;;;17.10;99.90;;;;;;5116513;28;20084;-95
2021/01/22 09:36:00;;;;;;;13.77;11.60;;;17.10;99.90;;;;;;5116802;28;20379;-95
2021/01/22 09:38:30;;;;;;;57.08;12.77;;;17.10;99.90;;;;;;5116210;28;20055;-95
2021/01/22 09:41:10;;;;;;;13.20;12.00;;;17.20;99.90;;;;;;5135459;28;20020;-96
2021/01/22 09:44:01;;;;;;;15.70;14.70;;;17.50;99.90;;;;;;5132960;28;20071;-96
2021/01/22 09:46:36;;;;;;;14.43;13.10;;;17.50;99.90;;;;;;5121087;28;20131;-96
2021/01/22 09:49:11;;;;;;;15.45;14.55;;;17.50;99.90;;;;;;5118756;28;20507;-96
2021/01/22 09:51:44;;;;;;;13.13;12.27;;;17.60;99.90;;;;;;5114885;28;20043;-95
2021/01/22 09:54:17;;;;;;;17.25;16.10;;;18.00;99.90;;;;;;5117984;28;20027;-96
2021/01/22 09:57:54;;;;;;;15.27;14.10;;;18.10;99.90;;;;;;5127970;27;20031;-96
2021/01/22 10:00:50;;;;;;;13.15;12.27;;;18.70;99.90;;;;;;5129777;28;20027;-96
2021/01/22 10:04:25;;;;;;;15.85;14.75;;;18.80;99.90;;;;;;5130360;28;20075;-96
2021/01/22 10:07:19;;;;;;;14.55;13.52;;;18.00;99.90;;;;;;5123051;28;20075;-96
2021/01/22 10:09:56;;;;;;;16.15;15.15;;;18.20;99.90;;;;;;5117471;27;20024;-85
2021/01/22 10:12:24;;;;;;;5.65;5.20;;;18.30;99.90;;;;;;5104976;28;20402;-85
2021/01/22 10:14:52;;;;;;;10.50;9.90;;;19.10;99.90;;;;;;5100748;28;20075;-85
2021/01/22 10:17:21;;;;;;;8.70;8.20;;;20.10;99.90;;;;;;5105816;28;20423;-85
2021/01/22 10:19:49;;;;;;;0.68;0.40;;;19.60;99.90;;;;;;5103848;28;20025;-85
2021/01/22 10:22:17;;;;;;;7.05;6.65;;;18.90;99.90;;;;;;5105380;28;20032;-85
2021/01/22 10:24:45;;;;;;;9.57;9.05;;;18.50;99.90;;;;;;5117468;28;20039;-85
2021/01/22 10:27:13;;;;;;;12.90;12.02;;;18.20;99.90;;;;;;5104192;28;20078;-84
2021/01/22 10:29:41;;;;;;;4.45;4.22;;;18.10;99.90;;;;;;5106246;28;20052;-84
2021/01/22 10:32:09;;;;;;;3.00;1.25;;;18.00;99.90;;;;;;5106883;28;20032;-84
2021/01/22 10:34:38;;;;;;;0.40;0.40;;;18.00;99.90;;;;;;5103776;28;20451;-85
2021/01/22 10:37:06;;;;;;;0.65;0.30;;;18.00;99.90;;;;;;5104723;28;20028;-84
2021/01/22 10:39:33;;;;;;;17.00;16.00;;;18.40;99.90;;;;;;5107331;28;20035;-84
2021/01/22 10:42:03;;;;;;;12.50;11.73;;;18.50;99.90;;;;;;5103771;28;20478;-84
2021/01/22 10:44:31;;;;;;;12.63;11.93;;;18.40;99.90;;;;;;5102442;28;20495;-85
2021/01/22 10:46:59;;;;;;;1.60;1.50;;;20.00;99.90;;;;;;5103724;28;20060;-85
2021/01/22 10:49:28;;;;;;;3.22;3.03;;;19.50;99.90;;;;;;5105098;28;20051;-85
2021/01/22 10:51:56;;;;;;;7.12;6.70;;;19.80;99.90;;;;;;5101076;28;20051;-86
2021/01/22 10:54:24;;;;;;;12.40;11.60;;;20.80;99.90;;;;;;5100613;28;20082;-85
2021/01/22 10:56:53;;;;;;;7.40;7.00;;;21.00;99.90;;;;;;5119530;28;20099;-85
2021/01/22 10:59:21;;;;;;;9.02;8.63;;;20.80;99.90;;;;;;5104739;28;20029;-84
2021/01/22 11:01:48;;;;;;;1.37;0.60;;;20.10;99.90;;;;;;5101902;28;20087;-85
2021/01/22 11:04:17;;;;;;;7.10;6.70;;;19.50;99.90;;;;;;5102704;28;20411;-85
2021/01/22 11:06:45;;;;;;;6.40;6.00;;;19.50;99.90;;;;;;5105541;28;20455;-85
2021/01/22 11:09:13;;;;;;;7.47;7.07;;;19.40;99.90;;;;;;5104692;28;20024;-85
2021/01/22 11:11:41;;;;;;;13.95;13.05;;;19.70;99.90;;;;;;5122573;28;20048;-85
2021/01/22 11:14:09;;;;;;;12.50;11.80;;;19.80;99.90;;;;;;5122046;28;20028;-86
2021/01/22 11:16:37;;;;;;;10.52;9.85;;;20.30;99.90;;;;;;5125396;28;20024;-85
2021/01/22 11:19:06;;;;;;;10.85;10.27;;;19.70;99.90;;;;;;5123967;28;20024;-84
2021/01/22 11:21:37;;;;;;;11.68;10.93;;;19.40;99.90;;;;;;5124120;28;20382;-85
2021/01/22 11:24:06;;;;;;;4.32;4.15;;;19.60;99.90;;;;;;5122773;28;20024;-84
2021/01/22 11:26:35;;;;;;;10.02;9.40;;;20.20;99.90;;;;;;5123729;28;20023;-85
2021/01/22 11:29:03;;;;;;;10.13;9.63;;;20.30;99.90;;;;;;5125164;28;20387;-85
2021/01/22 11:31:31;;;;;;;9.45;9.05;;;20.70;99.90;;;;;;5107000;28;20404;-85
2021/01/22 11:34:00;;;;;;;8.10;7.62;;;20.10;99.90;;;;;;5126664;28;20064;-85
2021/01/22 11:36:28;;;;;;;8.02;7.53;;;20.10;99.90;;;;;;5127522;28;20032;-85
2021/01/22 11:38:57;;;;;;;9.68;9.18;;;20.40;99.90;;;;;;5126671;28;20465;-85
2021/01/22 11:41:25;;;;;;;6.28;5.97;;;20.90;99.90;;;;;;5127261;28;20032;-85
2021/01/22 11:43:53;;;;;;;6.18;5.78;;;21.50;99.90;;;;;;5126505;28;20486;-85
2021/01/22 11:46:22;;;;;;;6.53;6.12;;;21.40;99.90;;;;;;5128271;28;20469;-86
2021/01/22 11:48:50;;;;;;;4.53;4.22;;;21.70;99.90;;;;;;5127233;28;20040;-85
2021/01/22 11:51:19;;;;;;;5.62;5.32;;;20.70;99.90;;;;;;5106877;28;20137;-85
2021/01/22 11:53:47;;;;;;;9.77;9.27;;;20.30;99.90;;;;;;5125663;28;20037;-84
2021/01/22 11:56:15;;;;;;;9.15;8.65;;;20.50;99.90;;;;;;5126433;28;20039;-85
2021/01/22 11:58:43;;;;;;;7.70;7.30;;;20.70;99.90;;;;;;5125173;28;20067;-85
2021/01/22 12:01:11;;;;;;;6.03;5.72;;;20.60;99.90;;;;;;5124974;28;20032;-85
2021/01/22 12:03:40;;;;;;;9.07;8.68;;;20.50;99.90;;;;;;5126663;28;20490;-85
2021/01/22 12:06:08;;;;;;;9.75;9.25;;;20.70;99.90;;;;;;5126766;28;20027;-85
2021/01/22 12:08:36;;;;;;;8.77;8.38;;;20.40;99.90;;;;;;5124212;28;20071;-85
2021/01/22 12:11:04;;;;;;;7.97;7.57;;;20.70;99.90;;;;;;5123597;28;20317;-86
2021/01/22 12:13:32;;;;;;;6.57;6.28;;;20.40;99.90;;;;;;5107806;28;20024;-85
2021/01/22 12:16:00;;;;;;;6.70;6.35;;;21.00;99.90;;;;;;5126247;28;20078;-85
2021/01/22 12:18:28;;;;;;;7.45;7.00;;;21.50;99.90;;;;;;5121714;28;20051;-85
2021/01/22 12:20:56;;;;;;;4.68;4.43;;;21.10;99.90;;;;;;5125110;28;20044;-85
2021/01/22 12:23:24;;;;;;;2.55;2.15;;;23.30;99.90;;;;;;5127948;28;20079;-85
2021/01/22 12:25:52;;;;;;;2.37;2.17;;;21.70;99.90;;;;;;5125321;28;20046;-85
2021/01/22 12:28:20;;;;;;;1.40;1.30;;;20.50;99.90;;;;;;5122715;28;20038;-85
2021/01/22 12:30:48;;;;;;;1.52;1.42;;;20.60;99.90;;;;;;5125351;28;20059;-86
2021/01/22 12:33:17;;;;;;;4.55;4.35;;;21.10;99.90;;;;;;5125747;28;20035;-85
2021/01/22 12:35:49;;;;;;;6.05;5.78;;;20.40;99.90;;;;;;5123334;28;20055;-86
2021/01/22 12:38:18;;;;;;;4.80;4.60;;;20.30;99.90;;;;;;5124807;28;20645;-85
2021/01/22 12:40:46;;;;;;;3.33;3.22;;;20.20;99.90;;;;;;5126097;28;20407;-85
2021/01/22 12:43:14;;;;;;;2.78;2.67;;;20.40;99.90;;;;;;5125914;28;20075;-85
2021/01/22 12:45:42;;;;;;;2.17;1.98;;;20.40;99.90;;;;;;5125744;28;20043;-85
2021/01/22 12:48:11;;;;;;;2.30;2.17;;;20.50;99.90;;;;;;5126847;28;20031;-85
2021/01/22 12:50:41;;;;;;;2.35;2.20;;;21.20;99.90;;;;;;5125567;28;20028;-85
2021/01/22 12:53:09;;;;;;;2.55;2.45;;;21.20;99.90;;;;;;5125353;28;20035;-85
2021/01/22 12:55:37;;;;;;;2.45;1.70;;;21.00;99.90;;;;;;5123459;28;20027;-85
2021/01/22 12:58:05;;;;;;;1.83;1.50;;;20.80;99.90;;;;;;5127285;28;20028;-84
2021/01/22 13:00:36;;;;;;;1.90;1.80;;;20.60;99.90;;;;;;5125191;28;20564;-85
2021/01/22 13:03:04;;;;;;;2.00;1.90;;;20.80;99.90;;;;;;5127094;28;20067;-86
2021/01/22 13:05:32;;;;;;;1.80;1.80;;;21.50;99.90;;;;;;5127815;28;20031;-85
2021/01/22 13:08:01;;;;;;;1.23;1.20;;;21.00;99.90;;;;;;5125535;28;20028;-85
2021/01/22 13:10:28;;;;;;;2.20;1.27;;;20.90;99.90;;;;;;5125112;28;20032;-85